sensor_id;sensor_type;location;lat;lon;timestamp;P1;durP1;ratioP1;P2;durP2;ratioP2
22282;SDS011;11310;51.528;21.204;2022-12-18T00:00:07;32.40;;;10.60;;
22282;SDS011;11310;51.528;21.204;2022-12-18T00:02:40;25.60;;;9.10;;
22282;SDS011;11310;51.528;21.204;2022-12-18T00:05:10;24.60;;;9.88;;
22282;SDS011;11310;51.528;21.204;2022-12-18T00:07:39;29.08;;;10.30;;
22282;SDS011;11310;51.528;21.204;2022-12-18T00:10:07;19.00;;;7.80;;
22282;SDS011;11310;51.528;21.204;2022-12-18T00:12:36;24.23;;;9.00;;
22282;SDS011;11310;51.528;21.204;2022-12-18T00:15:04;25.63;;;9.00;;
22282;SDS011;11310;51.528;21.204;2022-12-18T00:17:33;24.08;;;9.27;;
22282;SDS011;11310;51.528;21.204;2022-12-18T00:20:03;18.02;;;7.88;;
22282;SDS011;11310;51.528;21.204;2022-12-18T00:22:32;25.70;;;9.68;;
22282;SDS011;11310;51.528;21.204;2022-12-18T00:25:00;26.50;;;8.98;;
22282;SDS011;11310;51.528;21.204;2022-12-18T00:27:29;22.73;;;8.10;;
22282;SDS011;11310;51.528;21.204;2022-12-18T00:29:58;20.73;;;8.77;;
22282;SDS011;11310;51.528;21.204;2022-12-18T00:32:32;20.35;;;8.45;;
22282;SDS011;11310;51.528;21.204;2022-12-18T00:35:03;21.80;;;8.80;;
22282;SDS011;11310;51.528;21.204;2022-12-18T00:37:32;22.30;;;8.43;;
22282;SDS011;11310;51.528;21.204;2022-12-18T00:40:01;23.77;;;8.50;;
22282;SDS011;11310;51.528;21.204;2022-12-18T00:42:30;28.08;;;9.35;;
22282;SDS011;11310;51.528;21.204;2022-12-18T00:45:19;18.83;;;7.88;;
22282;SDS011;11310;51.528;21.204;2022-12-18T00:47:47;27.33;;;8.95;;
22282;SDS011;11310;51.528;21.204;2022-12-18T00:50:17;22.48;;;8.82;;
22282;SDS011;11310;51.528;21.204;2022-12-18T00:52:46;21.88;;;8.60;;
22282;SDS011;11310;51.528;21.204;2022-12-18T00:55:15;21.08;;;8.15;;
22282;SDS011;11310;51.528;21.204;2022-12-18T00:57:46;22.65;;;9.23;;
22282;SDS011;11310;51.528;21.204;2022-12-18T01:00:15;23.85;;;8.80;;
22282;SDS011;11310;51.528;21.204;2022-12-18T01:02:43;23.42;;;8.50;;
22282;SDS011;11310;51.528;21.204;2022-12-18T01:05:12;24.13;;;8.98;;
22282;SDS011;11310;51.528;21.204;2022-12-18T01:07:44;17.63;;;7.80;;
22282;SDS011;11310;51.528;21.204;2022-12-18T01:10:12;22.90;;;8.73;;
22282;SDS011;11310;51.528;21.204;2022-12-18T01:12:41;21.27;;;7.90;;
22282;SDS011;11310;51.528;21.204;2022-12-18T01:15:10;23.40;;;8.45;;
22282;SDS011;11310;51.528;21.204;2022-12-18T01:17:40;21.75;;;7.72;;
22282;SDS011;11310;51.528;21.204;2022-12-18T01:20:09;29.77;;;9.63;;
22282;SDS011;11310;51.528;21.204;2022-12-18T01:22:39;20.33;;;8.57;;
22282;SDS011;11310;51.528;21.204;2022-12-18T01:25:09;24.50;;;9.18;;
22282;SDS011;11310;51.528;21.204;2022-12-18T01:27:37;22.88;;;8.45;;
22282;SDS011;11310;51.528;21.204;2022-12-18T01:30:06;23.05;;;9.00;;
22282;SDS011;11310;51.528;21.204;2022-12-18T01:32:36;22.10;;;9.18;;
22282;SDS011;11310;51.528;21.204;2022-12-18T01:35:05;20.42;;;7.88;;
22282;SDS011;11310;51.528;21.204;2022-12-18T01:37:34;20.38;;;8.40;;
22282;SDS011;11310;51.528;21.204;2022-12-18T01:40:03;21.58;;;8.25;;
22282;SDS011;11310;51.528;21.204;2022-12-18T01:42:34;21.35;;;7.85;;
22282;SDS011;11310;51.528;21.204;2022-12-18T01:45:04;22.05;;;8.70;;
22282;SDS011;11310;51.528;21.204;2022-12-18T01:50:09;18.70;;;7.63;;
22282;SDS011;11310;51.528;21.204;2022-12-18T01:52:40;20.08;;;8.73;;
22282;SDS011;11310;51.528;21.204;2022-12-18T01:55:11;21.85;;;7.43;;
22282;SDS011;11310;51.528;21.204;2022-12-18T01:57:43;22.42;;;8.18;;
22282;SDS011;11310;51.528;21.204;2022-12-18T02:00:13;21.95;;;7.50;;
22282;SDS011;11310;51.528;21.204;2022-12-18T02:02:44;22.80;;;8.43;;
22282;SDS011;11310;51.528;21.204;2022-12-18T02:05:15;19.15;;;8.23;;
22282;SDS011;11310;51.528;21.204;2022-12-18T02:07:49;24.92;;;9.90;;
22282;SDS011;11310;51.528;21.204;2022-12-18T02:10:34;25.30;;;8.93;;
22282;SDS011;11310;51.528;21.204;2022-12-18T02:13:11;22.40;;;8.25;;
22282;SDS011;11310;51.528;21.204;2022-12-18T02:15:44;22.77;;;9.50;;
22282;SDS011;11310;51.528;21.204;2022-12-18T02:18:21;27.80;;;9.30;;
22282;SDS011;11310;51.528;21.204;2022-12-18T02:20:55;24.90;;;9.07;;
22282;SDS011;11310;51.528;21.204;2022-12-18T02:23:35;23.45;;;9.02;;
22282;SDS011;11310;51.528;21.204;2022-12-18T02:26:17;24.83;;;9.18;;
22282;SDS011;11310;51.528;21.204;2022-12-18T02:28:51;22.90;;;8.98;;
22282;SDS011;11310;51.528;21.204;2022-12-18T02:31:27;23.75;;;9.13;;
22282;SDS011;11310;51.528;21.204;2022-12-18T02:34:00;25.05;;;9.52;;
22282;SDS011;11310;51.528;21.204;2022-12-18T02:36:37;25.10;;;8.98;;
22282;SDS011;11310;51.528;21.204;2022-12-18T02:39:10;18.83;;;8.63;;
22282;SDS011;11310;51.528;21.204;2022-12-18T02:41:55;24.30;;;8.98;;
22282;SDS011;11310;51.528;21.204;2022-12-18T02:44:25;23.13;;;8.50;;
22282;SDS011;11310;51.528;21.204;2022-12-18T02:46:54;25.55;;;9.63;;
22282;SDS011;11310;51.528;21.204;2022-12-18T02:49:26;24.77;;;8.48;;
22282;SDS011;11310;51.528;21.204;2022-12-18T02:52:05;19.60;;;7.63;;
22282;SDS011;11310;51.528;21.204;2022-12-18T02:54:46;20.40;;;8.00;;
22282;SDS011;11310;51.528;21.204;2022-12-18T02:57:28;21.73;;;7.53;;
22282;SDS011;11310;51.528;21.204;2022-12-18T03:00:04;19.30;;;7.82;;
22282;SDS011;11310;51.528;21.204;2022-12-18T03:02:38;20.60;;;8.43;;
22282;SDS011;11310;51.528;21.204;2022-12-18T03:05:13;23.00;;;8.63;;
22282;SDS011;11310;51.528;21.204;2022-12-18T03:07:46;24.17;;;9.70;;
22282;SDS011;11310;51.528;21.204;2022-12-18T03:10:21;27.20;;;9.75;;
22282;SDS011;11310;51.528;21.204;2022-12-18T03:12:56;27.88;;;9.35;;
22282;SDS011;11310;51.528;21.204;2022-12-18T03:15:31;23.30;;;9.13;;
22282;SDS011;11310;51.528;21.204;2022-12-18T03:18:10;23.65;;;8.77;;
22282;SDS011;11310;51.528;21.204;2022-12-18T03:20:43;23.10;;;9.30;;
22282;SDS011;11310;51.528;21.204;2022-12-18T03:23:19;26.33;;;8.48;;
22282;SDS011;11310;51.528;21.204;2022-12-18T03:25:52;21.38;;;8.80;;
22282;SDS011;11310;51.528;21.204;2022-12-18T03:28:38;22.05;;;8.80;;
22282;SDS011;11310;51.528;21.204;2022-12-18T03:31:10;24.75;;;10.23;;
22282;SDS011;11310;51.528;21.204;2022-12-18T03:33:44;24.85;;;8.80;;
22282;SDS011;11310;51.528;21.204;2022-12-18T03:36:23;27.98;;;9.07;;
22282;SDS011;11310;51.528;21.204;2022-12-18T03:38:52;22.35;;;9.02;;
22282;SDS011;11310;51.528;21.204;2022-12-18T03:41:23;30.60;;;9.45;;
22282;SDS011;11310;51.528;21.204;2022-12-18T03:44:18;22.80;;;9.27;;
22282;SDS011;11310;51.528;21.204;2022-12-18T03:46:56;32.17;;;11.00;;
22282;SDS011;11310;51.528;21.204;2022-12-18T03:49:32;28.25;;;9.88;;
22282;SDS011;11310;51.528;21.204;2022-12-18T03:52:06;32.45;;;9.80;;
22282;SDS011;11310;51.528;21.204;2022-12-18T03:54:40;25.08;;;9.60;;
22282;SDS011;11310;51.528;21.204;2022-12-18T03:57:15;26.98;;;9.30;;
22282;SDS011;11310;51.528;21.204;2022-12-18T03:59:51;25.70;;;9.32;;
22282;SDS011;11310;51.528;21.204;2022-12-18T04:02:28;26.67;;;8.98;;
22282;SDS011;11310;51.528;21.204;2022-12-18T04:05:02;27.15;;;9.48;;
22282;SDS011;11310;51.528;21.204;2022-12-18T04:07:36;25.73;;;9.70;;
22282;SDS011;11310;51.528;21.204;2022-12-18T04:10:08;29.73;;;9.45;;
22282;SDS011;11310;51.528;21.204;2022-12-18T04:12:41;28.58;;;9.75;;
22282;SDS011;11310;51.528;21.204;2022-12-18T04:15:13;26.80;;;9.35;;
22282;SDS011;11310;51.528;21.204;2022-12-18T04:17:45;22.73;;;9.40;;
22282;SDS011;11310;51.528;21.204;2022-12-18T04:20:20;25.08;;;7.82;;
22282;SDS011;11310;51.528;21.204;2022-12-18T04:22:49;22.55;;;8.90;;
22282;SDS011;11310;51.528;21.204;2022-12-18T04:25:19;27.52;;;9.25;;
22282;SDS011;11310;51.528;21.204;2022-12-18T04:28:04;28.75;;;9.07;;
22282;SDS011;11310;51.528;21.204;2022-12-18T04:30:35;24.73;;;8.60;;
22282;SDS011;11310;51.528;21.204;2022-12-18T04:33:07;28.05;;;8.52;;
22282;SDS011;11310;51.528;21.204;2022-12-18T04:35:38;24.08;;;8.85;;
22282;SDS011;11310;51.528;21.204;2022-12-18T04:38:07;27.70;;;9.35;;
22282;SDS011;11310;51.528;21.204;2022-12-18T04:40:37;24.15;;;8.52;;
22282;SDS011;11310;51.528;21.204;2022-12-18T04:43:15;23.48;;;8.95;;
22282;SDS011;11310;51.528;21.204;2022-12-18T04:45:45;25.20;;;8.60;;
22282;SDS011;11310;51.528;21.204;2022-12-18T04:48:14;24.95;;;8.88;;
22282;SDS011;11310;51.528;21.204;2022-12-18T04:50:43;30.48;;;9.18;;
22282;SDS011;11310;51.528;21.204;2022-12-18T04:53:12;24.52;;;9.20;;
22282;SDS011;11310;51.528;21.204;2022-12-18T04:55:40;29.75;;;9.38;;
22282;SDS011;11310;51.528;21.204;2022-12-18T04:58:08;26.63;;;9.13;;
22282;SDS011;11310;51.528;21.204;2022-12-18T05:00:37;21.98;;;8.80;;
22282;SDS011;11310;51.528;21.204;2022-12-18T05:03:07;22.58;;;8.50;;
22282;SDS011;11310;51.528;21.204;2022-12-18T05:05:35;27.63;;;9.38;;
22282;SDS011;11310;51.528;21.204;2022-12-18T05:08:04;29.08;;;9.10;;
22282;SDS011;11310;51.528;21.204;2022-12-18T05:10:32;26.45;;;9.55;;
22282;SDS011;11310;51.528;21.204;2022-12-18T05:13:04;23.08;;;9.20;;
22282;SDS011;11310;51.528;21.204;2022-12-18T05:15:33;23.45;;;8.73;;
22282;SDS011;11310;51.528;21.204;2022-12-18T05:18:02;29.27;;;9.43;;
22282;SDS011;11310;51.528;21.204;2022-12-18T05:20:33;26.42;;;9.40;;
22282;SDS011;11310;51.528;21.204;2022-12-18T05:23:01;29.08;;;9.63;;
22282;SDS011;11310;51.528;21.204;2022-12-18T05:25:29;25.63;;;9.88;;
22282;SDS011;11310;51.528;21.204;2022-12-18T05:27:58;25.27;;;8.50;;
22282;SDS011;11310;51.528;21.204;2022-12-18T05:30:26;26.98;;;8.68;;
22282;SDS011;11310;51.528;21.204;2022-12-18T05:32:55;29.58;;;9.75;;
22282;SDS011;11310;51.528;21.204;2022-12-18T05:35:23;28.15;;;9.45;;
22282;SDS011;11310;51.528;21.204;2022-12-18T05:37:54;28.42;;;9.30;;
22282;SDS011;11310;51.528;21.204;2022-12-18T05:40:23;25.63;;;8.98;;
22282;SDS011;11310;51.528;21.204;2022-12-18T05:42:51;26.05;;;8.55;;
22282;SDS011;11310;51.528;21.204;2022-12-18T05:45:19;27.50;;;9.18;;
22282;SDS011;11310;51.528;21.204;2022-12-18T05:47:48;28.67;;;9.55;;
22282;SDS011;11310;51.528;21.204;2022-12-18T05:50:16;27.42;;;9.18;;
22282;SDS011;11310;51.528;21.204;2022-12-18T05:52:45;32.13;;;9.93;;
22282;SDS011;11310;51.528;21.204;2022-12-18T05:55:14;29.05;;;10.60;;
22282;SDS011;11310;51.528;21.204;2022-12-18T05:57:43;19.80;;;8.85;;
22282;SDS011;11310;51.528;21.204;2022-12-18T06:00:12;22.20;;;8.40;;
22282;SDS011;11310;51.528;21.204;2022-12-18T06:02:42;24.73;;;9.57;;
22282;SDS011;11310;51.528;21.204;2022-12-18T06:05:16;21.48;;;8.18;;
22282;SDS011;11310;51.528;21.204;2022-12-18T06:07:45;28.42;;;10.10;;
22282;SDS011;11310;51.528;21.204;2022-12-18T06:10:15;30.90;;;10.38;;
22282;SDS011;11310;51.528;21.204;2022-12-18T06:12:44;24.95;;;9.27;;
22282;SDS011;11310;51.528;21.204;2022-12-18T06:15:13;23.60;;;8.25;;
22282;SDS011;11310;51.528;21.204;2022-12-18T06:17:44;27.15;;;9.50;;
22282;SDS011;11310;51.528;21.204;2022-12-18T06:20:12;26.55;;;9.95;;
22282;SDS011;11310;51.528;21.204;2022-12-18T06:22:41;27.13;;;9.32;;
22282;SDS011;11310;51.528;21.204;2022-12-18T06:25:09;27.90;;;9.73;;
22282;SDS011;11310;51.528;21.204;2022-12-18T06:27:39;22.63;;;8.88;;
22282;SDS011;11310;51.528;21.204;2022-12-18T06:30:09;23.02;;;7.65;;
22282;SDS011;11310;51.528;21.204;2022-12-18T06:32:39;26.33;;;9.15;;
22282;SDS011;11310;51.528;21.204;2022-12-18T06:35:08;28.33;;;9.20;;
22282;SDS011;11310;51.528;21.204;2022-12-18T06:37:36;28.65;;;9.80;;
22282;SDS011;11310;51.528;21.204;2022-12-18T06:40:05;24.95;;;8.35;;
22282;SDS011;11310;51.528;21.204;2022-12-18T06:42:34;27.23;;;9.10;;
22282;SDS011;11310;51.528;21.204;2022-12-18T06:45:05;24.85;;;9.80;;
22282;SDS011;11310;51.528;21.204;2022-12-18T06:47:34;23.38;;;8.23;;
22282;SDS011;11310;51.528;21.204;2022-12-18T06:50:03;22.80;;;8.95;;
22282;SDS011;11310;51.528;21.204;2022-12-18T06:52:32;26.55;;;10.23;;
22282;SDS011;11310;51.528;21.204;2022-12-18T06:55:01;29.95;;;9.60;;
22282;SDS011;11310;51.528;21.204;2022-12-18T06:57:29;26.75;;;9.85;;
22282;SDS011;11310;51.528;21.204;2022-12-18T06:59:57;30.45;;;10.32;;
22282;SDS011;11310;51.528;21.204;2022-12-18T07:02:27;29.50;;;10.65;;
22282;SDS011;11310;51.528;21.204;2022-12-18T07:04:56;31.27;;;10.32;;
22282;SDS011;11310;51.528;21.204;2022-12-18T07:07:24;29.35;;;10.70;;
22282;SDS011;11310;51.528;21.204;2022-12-18T07:09:52;30.45;;;10.82;;
22282;SDS011;11310;51.528;21.204;2022-12-18T07:12:21;29.95;;;9.50;;
22282;SDS011;11310;51.528;21.204;2022-12-18T07:14:49;33.60;;;10.43;;
22282;SDS011;11310;51.528;21.204;2022-12-18T07:17:18;32.45;;;11.25;;
22282;SDS011;11310;51.528;21.204;2022-12-18T07:19:47;27.90;;;11.07;;
22282;SDS011;11310;51.528;21.204;2022-12-18T07:22:16;31.60;;;11.23;;
22282;SDS011;11310;51.528;21.204;2022-12-18T07:24:44;32.83;;;11.43;;
22282;SDS011;11310;51.528;21.204;2022-12-18T07:27:12;28.02;;;10.50;;
22282;SDS011;11310;51.528;21.204;2022-12-18T07:29:41;28.60;;;9.60;;
22282;SDS011;11310;51.528;21.204;2022-12-18T07:32:09;32.33;;;11.98;;
22282;SDS011;11310;51.528;21.204;2022-12-18T07:34:38;35.22;;;11.95;;
22282;SDS011;11310;51.528;21.204;2022-12-18T07:37:08;34.90;;;11.75;;
22282;SDS011;11310;51.528;21.204;2022-12-18T07:39:36;27.67;;;10.57;;
22282;SDS011;11310;51.528;21.204;2022-12-18T07:42:04;34.13;;;11.90;;
22282;SDS011;11310;51.528;21.204;2022-12-18T07:44:51;30.58;;;10.30;;
22282;SDS011;11310;51.528;21.204;2022-12-18T07:47:20;32.42;;;10.90;;
22282;SDS011;11310;51.528;21.204;2022-12-18T07:49:49;31.88;;;11.68;;
22282;SDS011;11310;51.528;21.204;2022-12-18T07:52:19;28.25;;;10.32;;
22282;SDS011;11310;51.528;21.204;2022-12-18T07:54:52;27.80;;;9.95;;
22282;SDS011;11310;51.528;21.204;2022-12-18T07:57:20;34.83;;;10.52;;
22282;SDS011;11310;51.528;21.204;2022-12-18T08:00:09;28.80;;;10.73;;
22282;SDS011;11310;51.528;21.204;2022-12-18T08:02:39;27.13;;;11.10;;
22282;SDS011;11310;51.528;21.204;2022-12-18T08:05:08;32.97;;;10.50;;
22282;SDS011;11310;51.528;21.204;2022-12-18T08:07:38;33.08;;;10.43;;
22282;SDS011;11310;51.528;21.204;2022-12-18T08:10:07;29.17;;;10.32;;
22282;SDS011;11310;51.528;21.204;2022-12-18T08:12:36;30.60;;;10.40;;
22282;SDS011;11310;51.528;21.204;2022-12-18T08:15:05;25.80;;;10.20;;
22282;SDS011;11310;51.528;21.204;2022-12-18T08:17:34;31.75;;;10.93;;
22282;SDS011;11310;51.528;21.204;2022-12-18T08:20:03;29.17;;;10.93;;
22282;SDS011;11310;51.528;21.204;2022-12-18T08:22:33;29.20;;;11.00;;
22282;SDS011;11310;51.528;21.204;2022-12-18T08:25:03;31.88;;;10.23;;
22282;SDS011;11310;51.528;21.204;2022-12-18T08:27:33;26.67;;;9.93;;
22282;SDS011;11310;51.528;21.204;2022-12-18T08:30:02;24.45;;;9.27;;
22282;SDS011;11310;51.528;21.204;2022-12-18T08:32:32;28.52;;;9.85;;
22282;SDS011;11310;51.528;21.204;2022-12-18T08:35:00;30.35;;;10.73;;
22282;SDS011;11310;51.528;21.204;2022-12-18T08:37:29;28.67;;;10.60;;
22282;SDS011;11310;51.528;21.204;2022-12-18T08:39:58;28.25;;;10.07;;
22282;SDS011;11310;51.528;21.204;2022-12-18T08:42:27;28.98;;;11.55;;
22282;SDS011;11310;51.528;21.204;2022-12-18T08:45:13;26.52;;;10.65;;
22282;SDS011;11310;51.528;21.204;2022-12-18T08:47:43;28.88;;;10.90;;
22282;SDS011;11310;51.528;21.204;2022-12-18T08:50:12;30.08;;;10.98;;
22282;SDS011;11310;51.528;21.204;2022-12-18T08:52:41;29.48;;;9.52;;
22282;SDS011;11310;51.528;21.204;2022-12-18T08:55:10;26.38;;;10.20;;
22282;SDS011;11310;51.528;21.204;2022-12-18T08:57:39;33.80;;;11.90;;
22282;SDS011;11310;51.528;21.204;2022-12-18T09:00:08;33.80;;;12.40;;
22282;SDS011;11310;51.528;21.204;2022-12-18T09:02:40;32.30;;;11.15;;
22282;SDS011;11310;51.528;21.204;2022-12-18T09:05:09;25.85;;;10.82;;
22282;SDS011;11310;51.528;21.204;2022-12-18T09:07:37;26.40;;;9.65;;
22282;SDS011;11310;51.528;21.204;2022-12-18T09:10:06;30.25;;;10.88;;
22282;SDS011;11310;51.528;21.204;2022-12-18T09:12:35;27.05;;;9.77;;
22282;SDS011;11310;51.528;21.204;2022-12-18T09:15:05;29.13;;;9.73;;
22282;SDS011;11310;51.528;21.204;2022-12-18T09:17:34;26.52;;;9.75;;
22282;SDS011;11310;51.528;21.204;2022-12-18T09:20:03;29.50;;;10.90;;
22282;SDS011;11310;51.528;21.204;2022-12-18T09:22:32;26.25;;;11.00;;
22282;SDS011;11310;51.528;21.204;2022-12-18T09:25:00;25.52;;;10.05;;
22282;SDS011;11310;51.528;21.204;2022-12-18T09:27:29;25.95;;;10.93;;
22282;SDS011;11310;51.528;21.204;2022-12-18T09:29:58;24.92;;;10.07;;
22282;SDS011;11310;51.528;21.204;2022-12-18T09:32:28;26.02;;;10.05;;
22282;SDS011;11310;51.528;21.204;2022-12-18T09:34:56;24.77;;;9.45;;
22282;SDS011;11310;51.528;21.204;2022-12-18T09:37:25;27.02;;;10.02;;
22282;SDS011;11310;51.528;21.204;2022-12-18T09:39:54;28.20;;;10.90;;
22282;SDS011;11310;51.528;21.204;2022-12-18T09:42:22;24.48;;;9.90;;
22282;SDS011;11310;51.528;21.204;2022-12-18T09:44:52;25.45;;;9.05;;
22282;SDS011;11310;51.528;21.204;2022-12-18T09:47:22;28.35;;;10.25;;
22282;SDS011;11310;51.528;21.204;2022-12-18T09:49:58;25.90;;;9.95;;
22282;SDS011;11310;51.528;21.204;2022-12-18T09:52:30;30.25;;;10.80;;
22282;SDS011;11310;51.528;21.204;2022-12-18T09:55:05;27.05;;;9.55;;
22282;SDS011;11310;51.528;21.204;2022-12-18T09:57:45;28.23;;;10.85;;
22282;SDS011;11310;51.528;21.204;2022-12-18T10:00:19;32.70;;;11.57;;
22282;SDS011;11310;51.528;21.204;2022-12-18T10:02:50;29.40;;;10.23;;
22282;SDS011;11310;51.528;21.204;2022-12-18T10:05:24;25.85;;;10.90;;
22282;SDS011;11310;51.528;21.204;2022-12-18T10:08:01;28.95;;;9.77;;
22282;SDS011;11310;51.528;21.204;2022-12-18T10:10:38;28.70;;;10.07;;
22282;SDS011;11310;51.528;21.204;2022-12-18T10:13:11;24.52;;;9.38;;
22282;SDS011;11310;51.528;21.204;2022-12-18T10:15:52;29.83;;;10.20;;
22282;SDS011;11310;51.528;21.204;2022-12-18T10:18:32;55.45;;;14.25;;
22282;SDS011;11310;51.528;21.204;2022-12-18T10:23:54;27.05;;;9.65;;
22282;SDS011;11310;51.528;21.204;2022-12-18T10:26:31;30.98;;;9.85;;
22282;SDS011;11310;51.528;21.204;2022-12-18T10:29:00;29.45;;;9.98;;
22282;SDS011;11310;51.528;21.204;2022-12-18T10:31:31;30.30;;;10.18;;
22282;SDS011;11310;51.528;21.204;2022-12-18T10:34:00;23.95;;;9.15;;
22282;SDS011;11310;51.528;21.204;2022-12-18T10:36:30;26.35;;;10.30;;
22282;SDS011;11310;51.528;21.204;2022-12-18T10:39:03;27.23;;;10.15;;
22282;SDS011;11310;51.528;21.204;2022-12-18T10:41:42;26.63;;;10.13;;
22282;SDS011;11310;51.528;21.204;2022-12-18T10:44:12;28.35;;;11.18;;
22282;SDS011;11310;51.528;21.204;2022-12-18T10:46:45;24.85;;;10.52;;
22282;SDS011;11310;51.528;21.204;2022-12-18T10:49:19;30.88;;;11.30;;
22282;SDS011;11310;51.528;21.204;2022-12-18T10:51:52;28.02;;;10.00;;
22282;SDS011;11310;51.528;21.204;2022-12-18T10:54:34;30.38;;;11.35;;
22282;SDS011;11310;51.528;21.204;2022-12-18T10:57:13;27.42;;;10.52;;
22282;SDS011;11310;51.528;21.204;2022-12-18T10:59:49;22.77;;;8.88;;
22282;SDS011;11310;51.528;21.204;2022-12-18T11:02:25;28.33;;;10.32;;
22282;SDS011;11310;51.528;21.204;2022-12-18T11:04:56;29.95;;;10.63;;
22282;SDS011;11310;51.528;21.204;2022-12-18T11:07:25;22.98;;;9.65;;
22282;SDS011;11310;51.528;21.204;2022-12-18T11:10:15;27.88;;;10.13;;
22282;SDS011;11310;51.528;21.204;2022-12-18T11:12:45;30.27;;;10.43;;
22282;SDS011;11310;51.528;21.204;2022-12-18T11:15:15;28.20;;;11.30;;
22282;SDS011;11310;51.528;21.204;2022-12-18T11:17:47;26.20;;;10.55;;
22282;SDS011;11310;51.528;21.204;2022-12-18T11:20:22;32.10;;;11.45;;
22282;SDS011;11310;51.528;21.204;2022-12-18T11:22:59;30.67;;;11.30;;
22282;SDS011;11310;51.528;21.204;2022-12-18T11:25:30;28.85;;;10.85;;
22282;SDS011;11310;51.528;21.204;2022-12-18T11:28:02;35.38;;;11.75;;
22282;SDS011;11310;51.528;21.204;2022-12-18T11:30:32;31.40;;;11.13;;
22282;SDS011;11310;51.528;21.204;2022-12-18T11:33:03;27.75;;;10.40;;
22282;SDS011;11310;51.528;21.204;2022-12-18T11:38:17;23.90;;;9.90;;
22282;SDS011;11310;51.528;21.204;2022-12-18T11:40:51;26.38;;;10.43;;
22282;SDS011;11310;51.528;21.204;2022-12-18T11:43:25;23.90;;;9.70;;
22282;SDS011;11310;51.528;21.204;2022-12-18T11:45:59;27.10;;;10.52;;
22282;SDS011;11310;51.528;21.204;2022-12-18T11:48:33;26.65;;;10.18;;
22282;SDS011;11310;51.528;21.204;2022-12-18T11:51:09;28.35;;;10.65;;
22282;SDS011;11310;51.528;21.204;2022-12-18T11:53:43;30.98;;;10.85;;
22282;SDS011;11310;51.528;21.204;2022-12-18T11:56:17;24.55;;;10.52;;
22282;SDS011;11310;51.528;21.204;2022-12-18T11:58:59;27.92;;;10.40;;
22282;SDS011;11310;51.528;21.204;2022-12-18T12:01:40;26.42;;;10.20;;
22282;SDS011;11310;51.528;21.204;2022-12-18T12:04:22;20.63;;;9.05;;
22282;SDS011;11310;51.528;21.204;2022-12-18T12:07:06;30.63;;;11.57;;
22282;SDS011;11310;51.528;21.204;2022-12-18T12:09:47;26.92;;;10.63;;
22282;SDS011;11310;51.528;21.204;2022-12-18T12:12:26;23.88;;;10.13;;
22282;SDS011;11310;51.528;21.204;2022-12-18T12:15:18;24.25;;;9.45;;
22282;SDS011;11310;51.528;21.204;2022-12-18T12:17:56;23.52;;;9.60;;
22282;SDS011;11310;51.528;21.204;2022-12-18T12:20:39;28.90;;;11.40;;
22282;SDS011;11310;51.528;21.204;2022-12-18T12:23:20;30.98;;;10.95;;
22282;SDS011;11310;51.528;21.204;2022-12-18T12:25:57;26.45;;;9.75;;
22282;SDS011;11310;51.528;21.204;2022-12-18T12:28:37;23.65;;;9.65;;
22282;SDS011;11310;51.528;21.204;2022-12-18T12:31:32;26.20;;;10.52;;
22282;SDS011;11310;51.528;21.204;2022-12-18T12:34:13;25.55;;;10.77;;
22282;SDS011;11310;51.528;21.204;2022-12-18T12:36:51;40.60;;;11.48;;
22282;SDS011;11310;51.528;21.204;2022-12-18T12:39:30;35.92;;;11.25;;
22282;SDS011;11310;51.528;21.204;2022-12-18T12:42:05;28.92;;;10.90;;
22282;SDS011;11310;51.528;21.204;2022-12-18T12:44:56;28.23;;;10.93;;
22282;SDS011;11310;51.528;21.204;2022-12-18T12:47:33;33.65;;;11.20;;
22282;SDS011;11310;51.528;21.204;2022-12-18T12:50:11;25.83;;;10.50;;
22282;SDS011;11310;51.528;21.204;2022-12-18T12:52:44;29.70;;;11.38;;
22282;SDS011;11310;51.528;21.204;2022-12-18T12:55:16;26.10;;;10.32;;
22282;SDS011;11310;51.528;21.204;2022-12-18T12:57:53;27.58;;;10.77;;
22282;SDS011;11310;51.528;21.204;2022-12-18T13:00:28;29.58;;;12.32;;
22282;SDS011;11310;51.528;21.204;2022-12-18T13:03:07;27.75;;;12.30;;
22282;SDS011;11310;51.528;21.204;2022-12-18T13:05:44;28.85;;;9.60;;
22282;SDS011;11310;51.528;21.204;2022-12-18T13:08:27;32.17;;;11.18;;
22282;SDS011;11310;51.528;21.204;2022-12-18T13:11:01;23.38;;;9.70;;
22282;SDS011;11310;51.528;21.204;2022-12-18T13:13:52;29.67;;;10.82;;
22282;SDS011;11310;51.528;21.204;2022-12-18T13:16:23;27.50;;;10.48;;
22282;SDS011;11310;51.528;21.204;2022-12-18T13:18:54;29.33;;;10.80;;
22282;SDS011;11310;51.528;21.204;2022-12-18T13:23:55;25.48;;;10.40;;
22282;SDS011;11310;51.528;21.204;2022-12-18T13:26:28;30.30;;;10.20;;
22282;SDS011;11310;51.528;21.204;2022-12-18T13:29:01;29.27;;;10.40;;
22282;SDS011;11310;51.528;21.204;2022-12-18T13:34:35;26.20;;;9.38;;
22282;SDS011;11310;51.528;21.204;2022-12-18T13:43:23;24.20;;;9.60;;
22282;SDS011;11310;51.528;21.204;2022-12-18T13:48:56;23.80;;;9.52;;
22282;SDS011;11310;51.528;21.204;2022-12-18T13:51:28;26.20;;;9.43;;
22282;SDS011;11310;51.528;21.204;2022-12-18T13:54:00;28.25;;;10.30;;
22282;SDS011;11310;51.528;21.204;2022-12-18T13:56:30;23.40;;;9.43;;
22282;SDS011;11310;51.528;21.204;2022-12-18T13:59:14;24.90;;;9.85;;
22282;SDS011;11310;51.528;21.204;2022-12-18T14:01:53;25.80;;;10.20;;
22282;SDS011;11310;51.528;21.204;2022-12-18T14:04:24;26.13;;;9.63;;
22282;SDS011;11310;51.528;21.204;2022-12-18T14:06:56;25.80;;;9.27;;
22282;SDS011;11310;51.528;21.204;2022-12-18T14:09:31;23.83;;;9.18;;
22282;SDS011;11310;51.528;21.204;2022-12-18T14:12:06;24.00;;;9.73;;
22282;SDS011;11310;51.528;21.204;2022-12-18T14:15:00;23.42;;;10.30;;
22282;SDS011;11310;51.528;21.204;2022-12-18T14:17:33;23.75;;;9.55;;
22282;SDS011;11310;51.528;21.204;2022-12-18T14:20:04;24.73;;;10.38;;
22282;SDS011;11310;51.528;21.204;2022-12-18T14:22:42;26.15;;;10.05;;
22282;SDS011;11310;51.528;21.204;2022-12-18T14:25:14;26.45;;;9.25;;
22282;SDS011;11310;51.528;21.204;2022-12-18T14:27:45;27.55;;;10.32;;
22282;SDS011;11310;51.528;21.204;2022-12-18T14:30:28;22.77;;;9.67;;
22282;SDS011;11310;51.528;21.204;2022-12-18T14:33:05;28.98;;;10.45;;
22282;SDS011;11310;51.528;21.204;2022-12-18T14:35:38;23.50;;;8.93;;
22282;SDS011;11310;51.528;21.204;2022-12-18T14:38:10;21.83;;;9.02;;
22282;SDS011;11310;51.528;21.204;2022-12-18T14:40:53;29.83;;;10.30;;
22282;SDS011;11310;51.528;21.204;2022-12-18T14:43:23;27.65;;;10.18;;
22282;SDS011;11310;51.528;21.204;2022-12-18T14:45:52;24.95;;;9.82;;
22282;SDS011;11310;51.528;21.204;2022-12-18T14:48:33;24.27;;;9.32;;
22282;SDS011;11310;51.528;21.204;2022-12-18T14:51:05;23.90;;;10.02;;
22282;SDS011;11310;51.528;21.204;2022-12-18T14:53:36;29.27;;;10.80;;
22282;SDS011;11310;51.528;21.204;2022-12-18T14:56:15;31.20;;;11.32;;
22282;SDS011;11310;51.528;21.204;2022-12-18T14:58:47;28.02;;;10.55;;
22282;SDS011;11310;51.528;21.204;2022-12-18T15:01:19;24.65;;;10.50;;
22282;SDS011;11310;51.528;21.204;2022-12-18T15:03:53;24.35;;;9.38;;
22282;SDS011;11310;51.528;21.204;2022-12-18T15:06:27;27.52;;;10.20;;
22282;SDS011;11310;51.528;21.204;2022-12-18T15:08:58;29.75;;;9.98;;